createdAt,value
2024-05-09T03:33:29.721Z,58.78
2024-05-09T03:35:56.739Z,58.16
2024-05-09T03:38:23.571Z,58.07
2024-05-09T03:40:50.995Z,57.18
2024-05-09T03:43:18.654Z,56.81
2024-05-09T03:45:46.487Z,56.40
2024-05-09T03:48:13.595Z,56.82
2024-05-09T03:50:40.884Z,56.65
2024-05-09T03:53:10.126Z,56.65
2024-05-09T03:55:37.087Z,57.06
2024-05-09T03:58:05.079Z,56.95
2024-05-09T04:00:38.009Z,56.94
2024-05-09T04:03:08.734Z,56.84
2024-05-09T04:05:39.578Z,56.66
2024-05-09T04:08:06.906Z,57.35
2024-05-09T04:10:35.030Z,58.38
2024-05-09T04:13:03.321Z,57.61
2024-05-09T04:15:30.641Z,56.52
2024-05-09T04:17:57.971Z,56.30
2024-05-09T04:20:35.824Z,57.57
2024-05-09T04:23:06.986Z,57.76
2024-05-09T04:25:34.560Z,57.34
2024-05-09T04:28:01.438Z,56.40
2024-05-09T04:30:36.719Z,55.46
2024-05-09T04:33:08.262Z,55.24
2024-05-09T04:35:37.006Z,55.78
2024-05-09T04:38:05.173Z,54.96
2024-05-09T04:40:35.468Z,54.93
2024-05-09T04:43:07.352Z,53.67
2024-05-09T04:45:34.634Z,54.02
2024-05-09T04:48:02.333Z,53.52
2024-05-09T04:50:36.115Z,53.81
2024-05-09T04:53:10.207Z,54.43
2024-05-09T04:55:38.076Z,54.42
2024-05-09T04:58:08.100Z,54.13
2024-05-09T05:00:37.421Z,54.26
2024-05-09T05:03:07.444Z,53.97
2024-05-09T05:05:37.640Z,53.78
2024-05-09T05:08:05.423Z,53.03
2024-05-09T05:10:36.208Z,52.23
2024-05-09T05:13:20.960Z,53.72
2024-05-09T05:15:50.431Z,54.59
2024-05-09T05:18:17.609Z,54.11
2024-05-09T05:20:44.773Z,54.77
2024-05-09T05:23:13.545Z,55.71
2024-05-09T05:25:41.171Z,54.79
2024-05-09T05:28:08.101Z,54.52
2024-05-09T05:30:37.427Z,56.10
2024-05-09T05:33:05.372Z,57.73
2024-05-09T05:35:32.528Z,56.11
2024-05-09T05:38:01.615Z,56.19
2024-05-09T05:40:36.172Z,56.42
2024-05-09T05:43:05.691Z,55.83
2024-05-09T05:45:33.015Z,56.94
2024-05-09T05:48:03.381Z,59.30
2024-05-09T05:50:35.846Z,58.08
2024-05-09T05:53:08.763Z,60.54
2024-05-09T05:55:36.820Z,61.09
2024-05-09T05:58:03.851Z,59.85
2024-05-09T06:00:37.869Z,61.99
2024-05-09T06:03:07.567Z,60.75
2024-05-09T06:05:36.104Z,58.99
2024-05-09T06:08:02.969Z,59.75
2024-05-09T06:10:37.544Z,60.01
2024-05-09T06:13:08.910Z,58.30
2024-05-09T06:15:35.732Z,57.79
2024-05-09T06:18:05.875Z,57.55
2024-05-09T06:20:36.522Z,58.07
2024-05-09T06:23:08.455Z,57.19
2024-05-09T06:25:36.094Z,58.03
2024-05-09T06:28:03.237Z,54.41
2024-05-09T06:30:37.589Z,54.30
2024-05-09T06:33:08.524Z,58.09
2024-05-09T06:35:36.198Z,56.69
2024-05-09T06:38:03.227Z,57.42
2024-05-09T06:40:37.147Z,58.20
2024-05-09T06:43:17.723Z,56.82
2024-05-09T06:45:48.051Z,56.28
2024-05-09T06:48:18.020Z,54.69
2024-05-09T06:50:45.109Z,55.83
2024-05-09T06:53:13.910Z,55.47
2024-05-09T06:55:40.866Z,54.98
2024-05-09T06:58:08.947Z,54.54
2024-05-09T07:00:39.603Z,55.08
2024-05-09T07:03:13.398Z,53.00
2024-05-09T07:05:42.631Z,51.79
2024-05-09T07:08:09.847Z,50.50
2024-05-09T07:10:37.245Z,50.73
2024-05-09T07:13:13.566Z,50.46
2024-05-09T07:15:41.095Z,51.91
2024-05-09T07:18:18.651Z,52.45
2024-05-09T07:20:47.390Z,52.83
2024-05-09T07:23:14.728Z,50.67
2024-05-09T07:25:41.905Z,48.69
2024-05-09T07:28:20.161Z,48.60
2024-05-09T07:30:47.013Z,48.71
2024-05-09T07:33:18.008Z,50.07
2024-05-09T07:35:45.212Z,49.80
2024-05-09T07:38:12.225Z,47.39
2024-05-09T07:40:40.818Z,48.22
2024-05-09T07:43:08.382Z,46.68
2024-05-09T07:53:36.812Z,46.25
2024-05-09T07:55:56.220Z,45.24
2024-05-09T07:58:27.223Z,45.68
2024-05-09T08:00:54.616Z,44.19
2024-05-09T08:03:21.512Z,44.05
2024-05-09T08:05:48.388Z,40.88
2024-05-09T08:08:15.180Z,43.11
2024-05-09T08:10:42.121Z,41.19
2024-05-09T08:13:09.022Z,39.77
2024-05-09T08:15:37.748Z,41.97
2024-05-09T08:18:07.839Z,43.32
2024-05-09T08:20:35.489Z,41.37
2024-05-09T08:23:02.437Z,40.59
2024-05-09T08:25:29.206Z,40.62
2024-05-09T08:27:56.064Z,41.59
2024-05-09T08:30:30.051Z,39.80
2024-05-09T08:33:03.783Z,39.03
2024-05-09T08:35:30.743Z,38.63
2024-05-09T08:37:58.223Z,40.23
2024-05-09T08:40:32.905Z,38.82
2024-05-09T08:43:02.473Z,40.64
2024-05-09T08:45:34.425Z,38.82
2024-05-09T08:48:04.046Z,38.05
2024-05-09T08:50:37.887Z,34.87
2024-05-09T08:53:07.431Z,37.45
2024-05-09T08:55:35.443Z,37.35
2024-05-09T08:58:03.674Z,37.30
2024-05-09T09:00:36.787Z,36.74
2024-05-09T09:03:06.786Z,36.70
2024-05-09T09:05:34.046Z,36.68
2024-05-09T09:08:02.471Z,37.28
2024-05-09T09:10:32.243Z,35.85
2024-05-09T09:13:04.760Z,35.00
2024-05-09T09:15:32.626Z,33.94
2024-05-09T09:18:00.445Z,34.01
2024-05-09T09:20:35.353Z,36.18
2024-05-09T09:23:04.201Z,35.43
2024-05-09T09:25:31.327Z,34.50
2024-05-09T09:27:58.646Z,34.50
2024-05-09T09:30:36.349Z,32.13
2024-05-09T09:33:06.313Z,34.73
2024-05-09T09:35:34.119Z,36.06
2024-05-09T09:38:03.090Z,35.90
2024-05-09T09:40:35.924Z,35.86
2024-05-09T09:43:07.376Z,33.68
2024-05-09T09:45:34.371Z,35.13
2024-05-09T09:48:01.292Z,34.08
2024-05-09T09:50:34.210Z,32.72
2024-05-09T09:53:02.117Z,33.65
2024-05-09T09:55:29.033Z,35.75
2024-05-09T09:57:56.338Z,35.31
2024-05-09T10:00:30.105Z,36.60
2024-05-09T10:03:01.733Z,33.78
2024-05-09T10:05:29.222Z,36.34
2024-05-09T10:07:56.211Z,36.39
2024-05-09T10:10:31.311Z,38.60
2024-05-09T10:13:09.095Z,38.21
2024-05-09T10:15:46.470Z,36.95
2024-05-09T10:18:14.343Z,35.61
2024-05-09T10:20:44.925Z,33.00
2024-05-09T10:23:28.350Z,34.38
2024-05-09T10:26:03.025Z,32.71
2024-05-09T10:28:34.634Z,35.13
2024-05-09T10:31:07.935Z,32.75
2024-05-09T10:33:55.283Z,29.68
2024-05-09T10:36:23.450Z,34.12
2024-05-09T10:38:50.844Z,30.93
2024-05-09T10:41:17.810Z,29.85
2024-05-09T10:43:44.795Z,29.73
2024-05-09T10:46:12.084Z,28.29
2024-05-09T10:48:39.603Z,30.27
2024-05-09T10:51:06.543Z,31.05
2024-05-09T10:53:47.531Z,32.03
2024-05-09T10:56:14.674Z,31.68
2024-05-09T10:58:42.094Z,33.08
2024-05-09T11:01:09.717Z,34.51
2024-05-09T11:03:37.083Z,35.79
2024-05-09T11:06:04.463Z,35.83
2024-05-09T11:08:32.045Z,35.11
2024-05-09T11:10:59.692Z,34.61
2024-05-09T11:13:33.780Z,33.44
2024-05-09T11:16:03.168Z,31.32
2024-05-09T11:18:35.006Z,35.97
2024-05-09T11:21:11.715Z,33.03
2024-05-09T11:23:38.499Z,33.95
2024-05-09T11:26:05.354Z,31.76
2024-05-09T11:28:32.275Z,34.23
2024-05-09T11:31:10.072Z,34.07
2024-05-09T11:33:41.799Z,34.26
2024-05-09T11:36:09.367Z,33.63
2024-05-09T11:38:36.264Z,32.18
2024-05-09T11:41:03.802Z,31.42
2024-05-09T11:43:30.964Z,30.87
2024-05-09T11:45:58.225Z,30.25
2024-05-09T11:48:26.006Z,30.30
2024-05-09T11:50:54.370Z,31.21
2024-05-09T11:53:21.160Z,30.67
2024-05-09T11:55:48.015Z,30.50
2024-05-09T11:58:17.143Z,32.49
2024-05-09T12:00:44.515Z,34.79
2024-05-09T12:03:11.567Z,32.30
2024-05-09T12:05:38.616Z,33.22
2024-05-09T12:08:06.092Z,33.56
2024-05-09T12:10:35.505Z,31.38
2024-05-09T12:13:05.701Z,32.33
2024-05-09T12:15:36.280Z,32.91
2024-05-09T12:18:04.534Z,33.60
2024-05-09T12:20:37.070Z,32.95
2024-05-09T12:23:06.559Z,33.69
2024-05-09T12:25:33.614Z,33.27
2024-05-09T12:28:00.896Z,36.20
2024-05-09T12:30:36.155Z,35.68
2024-05-09T12:33:07.961Z,36.15
2024-05-09T12:35:35.142Z,34.93
2024-05-09T12:38:01.917Z,33.34
2024-05-09T12:40:35.693Z,31.91
2024-05-09T12:43:06.768Z,34.39
2024-05-09T12:45:33.970Z,33.26
2024-05-09T12:48:01.021Z,33.06
2024-05-09T12:50:32.785Z,31.88
2024-05-09T12:53:02.046Z,33.08
2024-05-09T12:55:33.993Z,31.72
2024-05-09T12:58:07.954Z,30.68
2024-05-09T13:00:35.283Z,30.45
2024-05-09T13:03:02.317Z,31.23
2024-05-09T13:05:29.784Z,34.12
2024-05-09T13:07:57.286Z,33.79
2024-05-09T13:10:31.602Z,31.67
2024-05-09T13:13:00.935Z,29.66
2024-05-09T13:15:30.017Z,28.61
2024-05-09T13:18:02.754Z,28.57
2024-05-09T13:20:34.244Z,28.18
2024-05-09T13:23:07.506Z,28.83
2024-05-09T13:25:35.401Z,30.60
2024-05-09T13:28:05.802Z,32.51
2024-05-09T13:30:39.355Z,32.99
2024-05-09T13:33:11.231Z,33.52
2024-05-09T13:35:40.171Z,32.25
2024-05-09T13:38:07.659Z,34.17
2024-05-09T13:40:36.309Z,35.28
2024-05-09T13:43:04.922Z,31.96
2024-05-09T13:45:32.701Z,30.14
2024-05-09T13:48:00.023Z,28.97
2024-05-09T13:50:33.631Z,28.75
2024-05-09T13:53:04.854Z,31.00
2024-05-09T13:55:32.411Z,32.94
2024-05-09T13:57:59.214Z,33.94
2024-05-09T14:00:38.185Z,31.08
2024-05-09T14:03:11.750Z,29.14
2024-05-09T14:05:38.856Z,29.99
2024-05-09T14:08:06.494Z,31.82
2024-05-09T14:10:33.459Z,33.82
2024-05-09T14:13:01.147Z,33.82
2024-05-09T14:15:28.318Z,35.06
2024-05-09T14:17:55.337Z,36.85
2024-05-09T14:20:30.437Z,37.82
2024-05-09T14:23:01.710Z,37.19
2024-05-09T14:25:29.761Z,35.37
2024-05-09T14:27:59.970Z,32.79
2024-05-09T14:30:34.706Z,31.61
2024-05-09T14:33:05.860Z,30.84
2024-05-09T14:35:33.487Z,31.08
2024-05-09T14:38:00.340Z,32.09
2024-05-09T14:40:37.153Z,30.33
2024-05-09T14:43:10.230Z,28.97
2024-05-09T14:45:38.730Z,30.19
2024-05-09T14:48:06.916Z,30.57
2024-05-09T14:50:38.010Z,30.65
2024-05-09T14:53:10.583Z,30.39
2024-05-09T14:55:39.572Z,32.05
2024-05-09T14:58:07.640Z,35.17
2024-05-09T15:00:37.997Z,35.80
2024-05-09T15:03:06.400Z,36.45
2024-05-09T15:05:36.490Z,37.19
2024-05-09T15:08:05.816Z,35.38
2024-05-09T15:10:35.708Z,36.56
2024-05-09T15:13:04.152Z,34.80
2024-05-09T15:15:31.435Z,34.97
2024-05-09T15:17:58.619Z,34.72
2024-05-09T15:20:33.086Z,34.19
2024-05-09T15:23:03.195Z,31.76
2024-05-09T15:25:30.383Z,31.51
2024-05-09T15:27:57.532Z,32.22
2024-05-09T15:30:30.625Z,30.69
2024-05-09T15:33:00.550Z,29.78
2024-05-09T15:35:27.843Z,29.26
2024-05-09T15:37:54.793Z,29.72
2024-05-09T15:40:30.903Z,29.10
2024-05-09T15:43:05.750Z,31.65
2024-05-09T15:45:33.983Z,34.82
2024-05-09T15:48:01.287Z,34.22
2024-05-09T15:50:35.978Z,32.44
2024-05-09T15:53:07.456Z,33.21
2024-05-09T15:55:35.139Z,33.17
2024-05-09T15:58:02.807Z,29.96
2024-05-09T16:00:38.356Z,31.20
2024-05-09T16:03:13.900Z,31.35
2024-05-09T16:05:43.750Z,30.30
2024-05-09T16:08:11.638Z,31.47
2024-05-09T16:10:47.806Z,33.56
2024-05-09T16:13:15.885Z,31.23
2024-05-09T16:15:43.602Z,32.07
2024-05-09T16:18:13.751Z,31.16
2024-05-09T16:20:42.498Z,30.35
2024-05-09T16:23:14.195Z,30.30
2024-05-09T16:25:46.194Z,32.26
2024-05-09T16:28:13.167Z,33.79
2024-05-09T16:30:40.342Z,33.52
2024-05-09T16:33:07.889Z,31.62
2024-05-09T16:35:35.512Z,31.60
2024-05-09T16:38:02.851Z,32.04
2024-05-09T16:40:36.874Z,33.15
2024-05-09T16:43:07.671Z,33.03
2024-05-09T16:45:34.867Z,32.92
2024-05-09T16:48:02.150Z,32.25
2024-05-09T16:50:33.371Z,32.70
2024-05-09T16:53:02.575Z,31.96
2024-05-09T16:55:29.610Z,30.73
2024-05-09T16:57:56.836Z,29.21
2024-05-09T17:00:34.980Z,29.18
2024-05-09T17:03:08.930Z,29.28
2024-05-09T17:05:36.654Z,28.76
2024-05-09T17:08:04.147Z,28.87
2024-05-09T17:10:33.824Z,28.59
2024-05-09T17:13:06.884Z,27.96
2024-05-09T17:15:35.786Z,29.54
2024-05-09T17:18:03.678Z,30.50
2024-05-09T17:20:34.607Z,30.12
2024-05-09T17:23:04.443Z,29.83
2024-05-09T17:25:31.787Z,29.42
2024-05-09T17:28:06.052Z,29.16
2024-05-09T17:30:38.909Z,30.14
2024-05-09T17:33:10.252Z,29.09
2024-05-09T17:35:38.239Z,29.74
2024-05-09T17:38:05.912Z,29.98
2024-05-09T17:40:36.032Z,29.82
2024-05-09T17:43:06.330Z,30.24
2024-05-09T17:45:34.389Z,31.58
2024-05-09T17:48:01.827Z,32.08
2024-05-09T17:52:59.178Z,32.11
2024-05-09T17:55:30.300Z,29.86
2024-05-09T17:57:57.911Z,29.81
2024-05-09T18:00:36.350Z,31.52
2024-05-09T18:03:07.164Z,30.72
2024-05-09T18:05:36.743Z,33.21
2024-05-09T18:08:04.666Z,37.18
2024-05-09T18:10:36.791Z,41.23
2024-05-09T18:13:09.890Z,45.56
2024-05-09T18:15:37.045Z,47.24
2024-05-09T18:18:04.638Z,48.52
2024-05-09T18:20:40.348Z,49.47
2024-05-09T18:23:11.556Z,50.02
2024-05-09T18:25:38.371Z,50.85
2024-05-09T18:28:06.217Z,51.25
2024-05-09T18:30:35.812Z,51.28
2024-05-09T18:33:05.944Z,51.12
2024-05-09T18:35:34.274Z,50.69
2024-05-09T18:38:01.048Z,52.35
2024-05-09T18:40:34.158Z,49.86
2024-05-09T18:43:06.901Z,49.02
2024-05-09T18:45:36.104Z,50.18
2024-05-09T18:48:04.896Z,51.59
2024-05-09T18:50:36.517Z,52.54
2024-05-09T18:53:06.372Z,51.77
2024-05-09T18:55:33.613Z,51.86
2024-05-09T18:58:00.843Z,50.57
2024-05-09T19:00:34.497Z,51.37
2024-05-09T19:03:12.399Z,49.37
2024-05-09T19:05:42.438Z,46.99
2024-05-09T19:08:10.535Z,45.15
2024-05-09T19:10:38.543Z,45.43
2024-05-09T19:13:10.185Z,50.29
2024-05-09T19:15:40.143Z,53.36
2024-05-09T19:18:07.831Z,52.39
2024-05-09T19:20:36.447Z,53.62
2024-05-09T19:23:05.749Z,53.88
2024-05-09T19:25:33.099Z,52.46
2024-05-09T19:28:00.492Z,49.25
2024-05-09T19:30:36.764Z,50.04
2024-05-09T19:33:07.848Z,51.31
2024-05-09T19:35:34.871Z,48.86
2024-05-09T19:38:01.936Z,50.46
2024-05-09T19:40:32.066Z,50.34
2024-05-09T19:43:01.993Z,48.01
2024-05-09T19:45:29.974Z,47.60
2024-05-09T19:47:57.184Z,48.54
2024-05-09T19:50:32.442Z,50.65
2024-05-09T19:53:07.331Z,52.09
2024-05-09T19:55:34.755Z,50.64
2024-05-09T19:58:07.008Z,51.01
2024-05-09T20:00:36.827Z,49.72
2024-05-09T20:03:06.724Z,52.39
2024-05-09T20:05:34.249Z,52.99
2024-05-09T20:08:01.350Z,53.49
2024-05-09T20:10:32.640Z,55.87
2024-05-09T20:13:01.998Z,55.72
2024-05-09T20:15:29.250Z,57.21
2024-05-09T20:17:56.918Z,55.92
2024-05-09T20:20:32.814Z,55.51
2024-05-09T20:23:07.606Z,55.57
2024-05-09T20:25:34.447Z,54.24
2024-05-09T20:28:01.441Z,52.90
2024-05-09T20:30:32.433Z,54.50
2024-05-09T20:33:02.743Z,54.62
2024-05-09T20:35:32.263Z,55.15
2024-05-09T20:37:59.541Z,58.31
2024-05-09T20:40:32.610Z,55.78
2024-05-09T20:43:03.101Z,55.50
2024-05-09T20:45:30.097Z,56.60
2024-05-09T20:47:57.320Z,55.49
2024-05-09T20:50:35.361Z,55.47
2024-05-09T20:53:08.443Z,56.94
2024-05-09T20:55:35.323Z,58.08
2024-05-09T20:58:02.284Z,58.14
2024-05-09T21:00:35.524Z,58.53
2024-05-09T21:03:07.758Z,58.17
2024-05-09T21:05:35.303Z,57.31
2024-05-09T21:08:02.898Z,58.47
2024-05-09T21:10:32.640Z,57.28
2024-05-09T21:13:01.003Z,56.18
2024-05-09T21:15:27.989Z,55.42
2024-05-09T21:17:55.035Z,55.67
2024-05-09T21:20:28.690Z,55.60
2024-05-09T21:22:58.356Z,55.93
2024-05-09T21:25:25.326Z,56.01
2024-05-09T21:27:52.347Z,56.84
2024-05-09T21:30:31.174Z,57.32
2024-05-09T21:33:05.849Z,58.44
2024-05-09T21:35:32.907Z,58.05
2024-05-09T21:37:59.824Z,58.66
2024-05-09T21:40:33.507Z,60.80
2024-05-09T21:43:02.495Z,60.58
2024-05-09T21:45:29.468Z,62.22
2024-05-09T21:47:56.438Z,60.57
2024-05-09T21:50:31.176Z,58.70
2024-05-09T21:53:03.756Z,58.99
2024-05-09T21:55:30.999Z,59.71
2024-05-09T21:57:57.804Z,61.75
